This is the latest recevied weather packets stored in our database for station/object NO9B. If no packets are shown the sender has not sent any weather packets the latest 10 day(s).
| Time | Temp. | Humidity | Pressure | Rain* | Wind** | Luminosity | Snow |
|---|---|---|---|---|---|---|---|
| 1787691145 | 28.33° C | 49% | 1018.7 hPa | 0 mm | - | 438 W/m² | - |
| 1787690841 | 27.78° C | 52% | 1018.7 hPa | 0 mm | - | 451 W/m² | - |
| 1787690541 | 28.33° C | 49% | 1018.9 hPa | 0 mm | - | 57 W/m² | - |
| 1787690237 | 28.33° C | 51% | 1018.6 hPa | 0 mm | - | 450 W/m² | - |
| 1787689934 | 27.78° C | 54% | 1018.9 hPa | 0 mm | - | 480 W/m² | - |
| 1787689628 | 27.78° C | 52% | 1018.8 hPa | 0 mm | - | 71 W/m² | - |
| 1787689324 | 28.33° C | 52% | 1019 hPa | 0 mm | - | 488 W/m² | - |
| 1787689023 | 28.33° C | 49% | 1018.9 hPa | 0 mm | - | 517 W/m² | - |
| 1787688719 | 27.78° C | 50% | 1018.9 hPa | 0 mm | - | 539 W/m² | - |
| 1787688414 | 27.78° C | 53% | 1019 hPa | 0 mm | - | 77 W/m² | - |
| 1787688109 | 27.78° C | 50% | 1019.2 hPa | 0 mm | - | 100 W/m² | - |
| 1787687805 | 28.33° C | 48% | 1019.1 hPa | 0 mm | - | 535 W/m² | - |
| 1787687505 | 28.89° C | 46% | 1019.1 hPa | 0 mm | - | 424 W/m² | - |
| 1787687201 | 28.89° C | 46% | 1019.2 hPa | 0 mm | - | 211 W/m² | - |
| 1787686896 | 27.78° C | 48% | 1019.5 hPa | 0 mm | - | 581 W/m² | - |
| 1787686593 | 27.78° C | 50% | 1019.5 hPa | 0 mm | - | 575 W/m² | - |
| 1787686287 | 27.78° C | 49% | 1019.6 hPa | 0 mm | - | 597 W/m² | - |
| 1787685984 | 27.78° C | 49% | 1019.7 hPa | 0 mm | - | 562 W/m² | - |
| 1787685679 | 27.78° C | 50% | 1019.4 hPa | 0 mm | - | 610 W/m² | - |
| 1787685378 | 26.67° C | 54% | 1019.6 hPa | 0 mm | - | 655 W/m² | - |
| 1787685073 | 27.78° C | 51% | 1019.6 hPa | 0 mm | - | 103 W/m² | - |
| 1787684769 | 27.78° C | 50% | 1019.6 hPa | 0 mm | - | 614 W/m² | - |
| 1787684468 | 27.78° C | 52% | 1019.8 hPa | 0 mm | - | 663 W/m² | - |
| 1787684163 | 27.22° C | 55% | 1019.5 hPa | 0 mm | - | 119 W/m² | - |
| 1787683862 | 27.22° C | 53% | 1019.6 hPa | 0 mm | - | 661 W/m² | - |
* Rain latest hour (hover to see other rain measurements)
** Current wind speed in m/s (hover to see current wind gust speed)